sensor_id;sensor_type;location;lat;lon;timestamp;P1;durP1;ratioP1;P2;durP2;ratioP2
55461;SDS011;41327;45.102;20.624;2023-01-06T00:02:19;6.68;;;3.35;;
55461;SDS011;41327;45.102;20.624;2023-01-06T00:04:45;6.20;;;3.53;;
55461;SDS011;41327;45.102;20.624;2023-01-06T00:07:10;6.18;;;2.75;;
55461;SDS011;41327;45.102;20.624;2023-01-06T00:09:36;6.75;;;3.22;;
55461;SDS011;41327;45.102;20.624;2023-01-06T00:12:02;5.53;;;2.88;;
55461;SDS011;41327;45.102;20.624;2023-01-06T00:14:28;3.42;;;2.30;;
55461;SDS011;41327;45.102;20.624;2023-01-06T00:16:53;7.32;;;2.80;;
55461;SDS011;41327;45.102;20.624;2023-01-06T00:19:19;8.75;;;3.17;;
55461;SDS011;41327;45.102;20.624;2023-01-06T00:21:44;4.45;;;2.53;;
55461;SDS011;41327;45.102;20.624;2023-01-06T00:24:10;5.40;;;2.85;;
55461;SDS011;41327;45.102;20.624;2023-01-06T00:26:36;6.10;;;2.85;;
55461;SDS011;41327;45.102;20.624;2023-01-06T00:29:01;6.30;;;2.95;;
55461;SDS011;41327;45.102;20.624;2023-01-06T00:31:27;4.55;;;2.78;;
55461;SDS011;41327;45.102;20.624;2023-01-06T00:33:56;5.47;;;2.33;;
55461;SDS011;41327;45.102;20.624;2023-01-06T00:36:22;6.45;;;2.72;;
55461;SDS011;41327;45.102;20.624;2023-01-06T00:38:48;7.22;;;3.20;;
55461;SDS011;41327;45.102;20.624;2023-01-06T00:41:14;5.80;;;2.60;;
55461;SDS011;41327;45.102;20.624;2023-01-06T00:43:59;4.60;;;2.80;;
55461;SDS011;41327;45.102;20.624;2023-01-06T00:46:25;5.20;;;2.38;;
55461;SDS011;41327;45.102;20.624;2023-01-06T00:48:53;5.55;;;2.53;;
55461;SDS011;41327;45.102;20.624;2023-01-06T00:51:22;5.13;;;2.65;;
55461;SDS011;41327;45.102;20.624;2023-01-06T00:53:47;6.82;;;3.30;;
55461;SDS011;41327;45.102;20.624;2023-01-06T00:56:13;5.22;;;2.65;;
55461;SDS011;41327;45.102;20.624;2023-01-06T00:58:38;5.18;;;2.80;;
55461;SDS011;41327;45.102;20.624;2023-01-06T01:01:04;5.63;;;2.50;;
55461;SDS011;41327;45.102;20.624;2023-01-06T01:03:31;6.55;;;2.58;;
55461;SDS011;41327;45.102;20.624;2023-01-06T01:05:58;5.97;;;2.78;;
55461;SDS011;41327;45.102;20.624;2023-01-06T01:08:27;4.55;;;2.60;;
55461;SDS011;41327;45.102;20.624;2023-01-06T01:10:53;5.68;;;2.47;;
55461;SDS011;41327;45.102;20.624;2023-01-06T01:13:19;4.28;;;2.78;;
55461;SDS011;41327;45.102;20.624;2023-01-06T01:15:44;6.20;;;2.60;;
55461;SDS011;41327;45.102;20.624;2023-01-06T01:18:10;3.70;;;2.40;;
55461;SDS011;41327;45.102;20.624;2023-01-06T01:20:35;5.57;;;2.42;;
55461;SDS011;41327;45.102;20.624;2023-01-06T01:23:01;4.10;;;2.10;;
55461;SDS011;41327;45.102;20.624;2023-01-06T01:25:26;3.80;;;2.33;;
55461;SDS011;41327;45.102;20.624;2023-01-06T01:27:51;6.00;;;2.42;;
55461;SDS011;41327;45.102;20.624;2023-01-06T01:30:17;4.45;;;2.05;;
55461;SDS011;41327;45.102;20.624;2023-01-06T01:32:45;4.93;;;2.10;;
55461;SDS011;41327;45.102;20.624;2023-01-06T01:35:11;4.50;;;2.22;;
55461;SDS011;41327;45.102;20.624;2023-01-06T01:37:37;4.00;;;2.30;;
55461;SDS011;41327;45.102;20.624;2023-01-06T01:40:02;5.65;;;2.72;;
55461;SDS011;41327;45.102;20.624;2023-01-06T01:42:28;3.75;;;1.90;;
55461;SDS011;41327;45.102;20.624;2023-01-06T01:45:00;10.82;;;2.70;;
55461;SDS011;41327;45.102;20.624;2023-01-06T01:47:28;3.92;;;2.30;;
55461;SDS011;41327;45.102;20.624;2023-01-06T01:49:59;4.97;;;2.40;;
55461;SDS011;41327;45.102;20.624;2023-01-06T01:52:29;5.28;;;2.05;;
55461;SDS011;41327;45.102;20.624;2023-01-06T01:54:56;6.40;;;2.55;;
55461;SDS011;41327;45.102;20.624;2023-01-06T01:57:29;6.53;;;2.58;;
55461;SDS011;41327;45.102;20.624;2023-01-06T01:59:59;4.18;;;2.45;;
55461;SDS011;41327;45.102;20.624;2023-01-06T02:02:25;4.15;;;2.30;;
55461;SDS011;41327;45.102;20.624;2023-01-06T02:04:54;5.70;;;2.38;;
55461;SDS011;41327;45.102;20.624;2023-01-06T02:07:19;6.00;;;2.22;;
55461;SDS011;41327;45.102;20.624;2023-01-06T02:09:55;4.85;;;2.58;;
55461;SDS011;41327;45.102;20.624;2023-01-06T02:12:24;7.53;;;2.50;;
55461;SDS011;41327;45.102;20.624;2023-01-06T02:14:49;5.93;;;2.38;;
55461;SDS011;41327;45.102;20.624;2023-01-06T02:31:52;3.53;;;2.20;;
55461;SDS011;41327;45.102;20.624;2023-01-06T02:42:43;2.97;;;1.63;;
55461;SDS011;41327;45.102;20.624;2023-01-06T02:45:18;5.22;;;1.75;;
55461;SDS011;41327;45.102;20.624;2023-01-06T02:47:50;3.45;;;1.30;;
55461;SDS011;41327;45.102;20.624;2023-01-06T02:50:27;2.10;;;1.42;;
55461;SDS011;41327;45.102;20.624;2023-01-06T02:53:18;5.32;;;1.65;;
55461;SDS011;41327;45.102;20.624;2023-01-06T02:55:51;2.47;;;1.35;;
55461;SDS011;41327;45.102;20.624;2023-01-06T02:58:24;3.45;;;1.52;;
55461;SDS011;41327;45.102;20.624;2023-01-06T03:01:19;2.78;;;1.77;;
55461;SDS011;41327;45.102;20.624;2023-01-06T03:03:48;2.85;;;1.60;;
55461;SDS011;41327;45.102;20.624;2023-01-06T03:06:16;2.85;;;1.52;;
55461;SDS011;41327;45.102;20.624;2023-01-06T03:08:43;2.88;;;1.17;;
55461;SDS011;41327;45.102;20.624;2023-01-06T03:11:10;1.70;;;1.20;;
55461;SDS011;41327;45.102;20.624;2023-01-06T03:13:39;4.15;;;1.30;;
55461;SDS011;41327;45.102;20.624;2023-01-06T03:16:10;3.28;;;1.40;;
55461;SDS011;41327;45.102;20.624;2023-01-06T03:18:36;3.55;;;1.75;;
55461;SDS011;41327;45.102;20.624;2023-01-06T03:21:03;2.70;;;1.48;;
55461;SDS011;41327;45.102;20.624;2023-01-06T03:23:30;3.22;;;1.60;;
55461;SDS011;41327;45.102;20.624;2023-01-06T03:25:57;2.72;;;1.50;;
55461;SDS011;41327;45.102;20.624;2023-01-06T03:28:23;5.30;;;2.10;;
55461;SDS011;41327;45.102;20.624;2023-01-06T03:30:52;2.60;;;1.48;;
55461;SDS011;41327;45.102;20.624;2023-01-06T03:33:24;6.40;;;2.17;;
55461;SDS011;41327;45.102;20.624;2023-01-06T03:36:00;3.58;;;1.67;;
55461;SDS011;41327;45.102;20.624;2023-01-06T03:46:58;5.00;;;2.22;;
55461;SDS011;41327;45.102;20.624;2023-01-06T03:49:07;4.40;;;1.98;;
55461;SDS011;41327;45.102;20.624;2023-01-06T03:59:33;8.23;;;2.55;;
55461;SDS011;41327;45.102;20.624;2023-01-06T04:02:01;4.00;;;2.33;;
55461;SDS011;41327;45.102;20.624;2023-01-06T04:04:29;5.70;;;2.22;;
55461;SDS011;41327;45.102;20.624;2023-01-06T04:06:55;3.72;;;1.75;;
55461;SDS011;41327;45.102;20.624;2023-01-06T04:09:20;5.78;;;2.20;;
55461;SDS011;41327;45.102;20.624;2023-01-06T04:11:46;3.25;;;1.92;;
55461;SDS011;41327;45.102;20.624;2023-01-06T04:14:30;5.43;;;2.42;;
55461;SDS011;41327;45.102;20.624;2023-01-06T04:16:56;3.85;;;2.30;;
55461;SDS011;41327;45.102;20.624;2023-01-06T04:19:21;4.38;;;1.95;;
55461;SDS011;41327;45.102;20.624;2023-01-06T04:21:46;3.20;;;1.70;;
55461;SDS011;41327;45.102;20.624;2023-01-06T04:24:12;6.45;;;3.28;;
55461;SDS011;41327;45.102;20.624;2023-01-06T04:26:37;4.68;;;2.22;;
55461;SDS011;41327;45.102;20.624;2023-01-06T04:29:03;5.88;;;2.45;;
55461;SDS011;41327;45.102;20.624;2023-01-06T04:31:28;7.28;;;3.00;;
55461;SDS011;41327;45.102;20.624;2023-01-06T04:33:54;8.32;;;4.57;;
55461;SDS011;41327;45.102;20.624;2023-01-06T04:36:19;5.25;;;2.60;;
55461;SDS011;41327;45.102;20.624;2023-01-06T04:38:45;5.60;;;3.10;;
55461;SDS011;41327;45.102;20.624;2023-01-06T04:41:11;14.55;;;6.97;;
55461;SDS011;41327;45.102;20.624;2023-01-06T04:43:36;21.30;;;9.57;;
55461;SDS011;41327;45.102;20.624;2023-01-06T04:46:02;26.15;;;10.30;;
55461;SDS011;41327;45.102;20.624;2023-01-06T04:48:27;45.75;;;19.95;;
55461;SDS011;41327;45.102;20.624;2023-01-06T04:51:06;50.97;;;22.08;;
55461;SDS011;41327;45.102;20.624;2023-01-06T04:53:37;44.25;;;19.60;;
55461;SDS011;41327;45.102;20.624;2023-01-06T04:56:07;30.00;;;14.25;;
55461;SDS011;41327;45.102;20.624;2023-01-06T04:58:34;15.90;;;7.68;;
55461;SDS011;41327;45.102;20.624;2023-01-06T05:01:04;6.60;;;3.28;;
55461;SDS011;41327;45.102;20.624;2023-01-06T05:03:31;8.65;;;3.15;;
55461;SDS011;41327;45.102;20.624;2023-01-06T05:05:59;5.05;;;2.85;;
55461;SDS011;41327;45.102;20.624;2023-01-06T05:08:29;6.40;;;2.80;;
55461;SDS011;41327;45.102;20.624;2023-01-06T05:11:06;6.78;;;2.47;;
55461;SDS011;41327;45.102;20.624;2023-01-06T05:13:39;4.25;;;2.25;;
55461;SDS011;41327;45.102;20.624;2023-01-06T05:16:05;5.57;;;2.78;;
55461;SDS011;41327;45.102;20.624;2023-01-06T05:18:32;4.35;;;2.40;;
55461;SDS011;41327;45.102;20.624;2023-01-06T05:20:57;9.60;;;3.25;;
55461;SDS011;41327;45.102;20.624;2023-01-06T05:23:23;5.68;;;2.78;;
55461;SDS011;41327;45.102;20.624;2023-01-06T05:25:51;5.07;;;2.55;;
55461;SDS011;41327;45.102;20.624;2023-01-06T05:28:17;7.13;;;3.67;;
55461;SDS011;41327;45.102;20.624;2023-01-06T05:30:43;8.55;;;4.35;;
55461;SDS011;41327;45.102;20.624;2023-01-06T05:33:09;5.03;;;3.00;;
55461;SDS011;41327;45.102;20.624;2023-01-06T05:35:34;7.82;;;4.00;;
55461;SDS011;41327;45.102;20.624;2023-01-06T05:38:00;5.78;;;3.10;;
55461;SDS011;41327;45.102;20.624;2023-01-06T05:40:26;8.27;;;3.08;;
55461;SDS011;41327;45.102;20.624;2023-01-06T05:42:53;5.95;;;2.75;;
55461;SDS011;41327;45.102;20.624;2023-01-06T05:45:19;4.97;;;2.47;;
55461;SDS011;41327;45.102;20.624;2023-01-06T05:47:46;4.55;;;2.45;;
55461;SDS011;41327;45.102;20.624;2023-01-06T05:50:11;4.32;;;2.38;;
55461;SDS011;41327;45.102;20.624;2023-01-06T05:52:36;6.50;;;2.45;;
55461;SDS011;41327;45.102;20.624;2023-01-06T05:55:02;4.82;;;2.38;;
55461;SDS011;41327;45.102;20.624;2023-01-06T05:57:27;5.82;;;2.40;;
55461;SDS011;41327;45.102;20.624;2023-01-06T05:59:53;2.28;;;1.80;;
55461;SDS011;41327;45.102;20.624;2023-01-06T06:02:18;4.72;;;2.30;;
55461;SDS011;41327;45.102;20.624;2023-01-06T06:04:43;5.35;;;2.50;;
55461;SDS011;41327;45.102;20.624;2023-01-06T06:07:10;11.13;;;4.60;;
55461;SDS011;41327;45.102;20.624;2023-01-06T06:09:36;6.25;;;3.10;;
55461;SDS011;41327;45.102;20.624;2023-01-06T06:12:01;5.75;;;3.10;;
55461;SDS011;41327;45.102;20.624;2023-01-06T06:14:27;6.20;;;3.08;;
55461;SDS011;41327;45.102;20.624;2023-01-06T06:16:52;5.85;;;3.97;;
55461;SDS011;41327;45.102;20.624;2023-01-06T06:19:18;9.77;;;4.43;;
55461;SDS011;41327;45.102;20.624;2023-01-06T06:21:43;6.00;;;3.13;;
55461;SDS011;41327;45.102;20.624;2023-01-06T06:24:09;7.82;;;2.67;;
55461;SDS011;41327;45.102;20.624;2023-01-06T06:26:34;8.10;;;2.08;;
55461;SDS011;41327;45.102;20.624;2023-01-06T06:29:00;4.53;;;1.90;;
55461;SDS011;41327;45.102;20.624;2023-01-06T06:31:26;4.25;;;2.00;;
55461;SDS011;41327;45.102;20.624;2023-01-06T06:33:54;5.07;;;2.20;;
55461;SDS011;41327;45.102;20.624;2023-01-06T06:36:21;5.18;;;2.13;;
55461;SDS011;41327;45.102;20.624;2023-01-06T06:38:47;4.60;;;2.03;;
55461;SDS011;41327;45.102;20.624;2023-01-06T06:41:14;6.18;;;2.70;;
55461;SDS011;41327;45.102;20.624;2023-01-06T06:43:40;5.30;;;2.53;;
55461;SDS011;41327;45.102;20.624;2023-01-06T06:46:05;7.13;;;2.90;;
55461;SDS011;41327;45.102;20.624;2023-01-06T06:48:31;16.77;;;7.53;;
55461;SDS011;41327;45.102;20.624;2023-01-06T06:50:58;13.77;;;6.50;;
55461;SDS011;41327;45.102;20.624;2023-01-06T06:53:27;13.73;;;6.25;;
55461;SDS011;41327;45.102;20.624;2023-01-06T06:55:52;9.60;;;4.00;;
55461;SDS011;41327;45.102;20.624;2023-01-06T06:58:18;7.15;;;3.85;;
55461;SDS011;41327;45.102;20.624;2023-01-06T07:00:44;5.47;;;3.10;;
55461;SDS011;41327;45.102;20.624;2023-01-06T07:03:09;6.95;;;3.53;;
55461;SDS011;41327;45.102;20.624;2023-01-06T07:05:35;8.85;;;3.83;;
55461;SDS011;41327;45.102;20.624;2023-01-06T07:08:00;5.45;;;3.13;;
55461;SDS011;41327;45.102;20.624;2023-01-06T07:10:26;6.45;;;3.25;;
55461;SDS011;41327;45.102;20.624;2023-01-06T07:12:51;5.43;;;3.53;;
55461;SDS011;41327;45.102;20.624;2023-01-06T07:15:17;6.97;;;3.47;;
55461;SDS011;41327;45.102;20.624;2023-01-06T07:17:42;3.88;;;2.35;;
55461;SDS011;41327;45.102;20.624;2023-01-06T07:20:08;5.55;;;2.78;;
55461;SDS011;41327;45.102;20.624;2023-01-06T07:22:37;5.75;;;2.83;;
55461;SDS011;41327;45.102;20.624;2023-01-06T07:25:07;5.35;;;2.60;;
55461;SDS011;41327;45.102;20.624;2023-01-06T07:27:33;7.85;;;2.72;;
55461;SDS011;41327;45.102;20.624;2023-01-06T07:29:59;5.90;;;2.60;;
55461;SDS011;41327;45.102;20.624;2023-01-06T07:32:25;4.25;;;2.45;;
55461;SDS011;41327;45.102;20.624;2023-01-06T07:34:50;5.95;;;2.83;;
55461;SDS011;41327;45.102;20.624;2023-01-06T07:37:16;7.20;;;2.38;;
55461;SDS011;41327;45.102;20.624;2023-01-06T07:39:41;5.90;;;3.03;;
55461;SDS011;41327;45.102;20.624;2023-01-06T07:42:07;11.05;;;3.08;;
55461;SDS011;41327;45.102;20.624;2023-01-06T07:44:33;6.15;;;2.63;;
55461;SDS011;41327;45.102;20.624;2023-01-06T07:46:59;5.22;;;2.60;;
55461;SDS011;41327;45.102;20.624;2023-01-06T07:49:24;3.92;;;2.65;;
55461;SDS011;41327;45.102;20.624;2023-01-06T07:51:50;7.40;;;2.70;;
55461;SDS011;41327;45.102;20.624;2023-01-06T07:54:15;5.88;;;2.50;;
55461;SDS011;41327;45.102;20.624;2023-01-06T07:56:40;5.22;;;3.17;;
55461;SDS011;41327;45.102;20.624;2023-01-06T07:59:07;4.47;;;2.63;;
55461;SDS011;41327;45.102;20.624;2023-01-06T08:01:32;9.18;;;2.42;;
55461;SDS011;41327;45.102;20.624;2023-01-06T08:03:58;4.28;;;2.13;;
55461;SDS011;41327;45.102;20.624;2023-01-06T08:06:24;5.22;;;2.63;;
55461;SDS011;41327;45.102;20.624;2023-01-06T08:08:51;8.15;;;3.47;;
55461;SDS011;41327;45.102;20.624;2023-01-06T08:11:17;5.95;;;3.03;;
55461;SDS011;41327;45.102;20.624;2023-01-06T08:13:43;6.15;;;2.92;;
55461;SDS011;41327;45.102;20.624;2023-01-06T08:16:09;12.35;;;3.03;;
55461;SDS011;41327;45.102;20.624;2023-01-06T08:18:35;3.95;;;2.13;;
55461;SDS011;41327;45.102;20.624;2023-01-06T08:21:05;5.60;;;2.47;;
55461;SDS011;41327;45.102;20.624;2023-01-06T08:23:32;5.53;;;2.65;;
55461;SDS011;41327;45.102;20.624;2023-01-06T08:26:09;5.07;;;2.30;;
55461;SDS011;41327;45.102;20.624;2023-01-06T08:28:37;5.53;;;2.80;;
55461;SDS011;41327;45.102;20.624;2023-01-06T08:31:06;4.15;;;2.05;;
55461;SDS011;41327;45.102;20.624;2023-01-06T08:33:36;6.47;;;2.45;;
55461;SDS011;41327;45.102;20.624;2023-01-06T08:36:03;8.50;;;3.75;;
55461;SDS011;41327;45.102;20.624;2023-01-06T08:38:31;4.38;;;2.38;;
55461;SDS011;41327;45.102;20.624;2023-01-06T08:40:57;6.68;;;2.78;;
55461;SDS011;41327;45.102;20.624;2023-01-06T08:43:23;5.00;;;2.30;;
55461;SDS011;41327;45.102;20.624;2023-01-06T08:45:50;5.60;;;3.38;;
55461;SDS011;41327;45.102;20.624;2023-01-06T08:48:15;5.15;;;3.03;;
55461;SDS011;41327;45.102;20.624;2023-01-06T08:50:41;6.05;;;3.08;;
55461;SDS011;41327;45.102;20.624;2023-01-06T08:53:07;10.20;;;3.67;;
55461;SDS011;41327;45.102;20.624;2023-01-06T08:55:33;9.43;;;4.50;;
55461;SDS011;41327;45.102;20.624;2023-01-06T08:58:02;13.18;;;3.35;;
55461;SDS011;41327;45.102;20.624;2023-01-06T09:00:27;9.48;;;4.25;;
55461;SDS011;41327;45.102;20.624;2023-01-06T09:02:53;13.95;;;5.63;;
55461;SDS011;41327;45.102;20.624;2023-01-06T09:05:18;17.00;;;5.22;;
55461;SDS011;41327;45.102;20.624;2023-01-06T09:07:44;12.52;;;4.40;;
55461;SDS011;41327;45.102;20.624;2023-01-06T09:10:09;11.35;;;4.78;;
55461;SDS011;41327;45.102;20.624;2023-01-06T09:12:36;8.68;;;4.65;;
55461;SDS011;41327;45.102;20.624;2023-01-06T09:15:02;12.98;;;7.07;;
55461;SDS011;41327;45.102;20.624;2023-01-06T09:17:28;15.90;;;6.55;;
55461;SDS011;41327;45.102;20.624;2023-01-06T09:19:53;9.45;;;5.32;;
55461;SDS011;41327;45.102;20.624;2023-01-06T09:22:19;9.85;;;6.03;;
55461;SDS011;41327;45.102;20.624;2023-01-06T09:24:44;13.32;;;6.13;;
55461;SDS011;41327;45.102;20.624;2023-01-06T09:27:10;11.55;;;4.15;;
55461;SDS011;41327;45.102;20.624;2023-01-06T09:29:35;235.60;;;93.32;;
55461;SDS011;41327;45.102;20.624;2023-01-06T09:32:00;401.15;;;171.55;;
55461;SDS011;41327;45.102;20.624;2023-01-06T09:34:27;116.90;;;68.47;;
55461;SDS011;41327;45.102;20.624;2023-01-06T09:36:52;14.02;;;10.43;;
55461;SDS011;41327;45.102;20.624;2023-01-06T09:39:18;8.00;;;3.72;;
55461;SDS011;41327;45.102;20.624;2023-01-06T09:41:53;9.48;;;3.17;;
55461;SDS011;41327;45.102;20.624;2023-01-06T09:44:31;6.15;;;2.88;;
55461;SDS011;41327;45.102;20.624;2023-01-06T09:46:59;6.47;;;2.47;;
55461;SDS011;41327;45.102;20.624;2023-01-06T09:49:38;3.78;;;2.13;;
55461;SDS011;41327;45.102;20.624;2023-01-06T09:52:11;4.85;;;2.50;;
55461;SDS011;41327;45.102;20.624;2023-01-06T09:54:49;10.05;;;3.42;;
55461;SDS011;41327;45.102;20.624;2023-01-06T09:57:21;7.18;;;2.47;;
55461;SDS011;41327;45.102;20.624;2023-01-06T09:59:57;5.93;;;2.00;;
55461;SDS011;41327;45.102;20.624;2023-01-06T10:02:26;3.40;;;2.42;;
55461;SDS011;41327;45.102;20.624;2023-01-06T10:04:54;6.45;;;2.03;;
55461;SDS011;41327;45.102;20.624;2023-01-06T10:12:43;4.65;;;2.92;;
55461;SDS011;41327;45.102;20.624;2023-01-06T10:18:16;6.90;;;2.80;;
55461;SDS011;41327;45.102;20.624;2023-01-06T10:26:43;9.95;;;4.72;;
55461;SDS011;41327;45.102;20.624;2023-01-06T10:29:14;25.08;;;10.80;;
55461;SDS011;41327;45.102;20.624;2023-01-06T10:31:42;74.22;;;29.98;;
55461;SDS011;41327;45.102;20.624;2023-01-06T10:34:16;47.47;;;21.20;;
55461;SDS011;41327;45.102;20.624;2023-01-06T10:36:53;58.35;;;25.55;;
55461;SDS011;41327;45.102;20.624;2023-01-06T10:39:27;58.15;;;25.40;;
55461;SDS011;41327;45.102;20.624;2023-01-06T10:44:39;52.75;;;24.42;;
55461;SDS011;41327;45.102;20.624;2023-01-06T10:47:04;43.25;;;19.52;;
55461;SDS011;41327;45.102;20.624;2023-01-06T10:49:30;39.05;;;19.23;;
55461;SDS011;41327;45.102;20.624;2023-01-06T10:51:56;42.75;;;23.05;;
55461;SDS011;41327;45.102;20.624;2023-01-06T10:54:24;21.25;;;12.57;;
55461;SDS011;41327;45.102;20.624;2023-01-06T10:56:59;11.95;;;6.90;;
55461;SDS011;41327;45.102;20.624;2023-01-06T10:59:26;10.67;;;4.73;;
55461;SDS011;41327;45.102;20.624;2023-01-06T11:01:53;4.85;;;2.80;;
55461;SDS011;41327;45.102;20.624;2023-01-06T11:04:21;9.20;;;3.92;;
55461;SDS011;41327;45.102;20.624;2023-01-06T11:06:48;7.20;;;2.72;;
55461;SDS011;41327;45.102;20.624;2023-01-06T11:11:50;7.78;;;3.50;;
55461;SDS011;41327;45.102;20.624;2023-01-06T11:14:18;6.75;;;3.58;;
55461;SDS011;41327;45.102;20.624;2023-01-06T11:16:52;4.18;;;2.40;;
55461;SDS011;41327;45.102;20.624;2023-01-06T11:19:30;9.20;;;3.20;;
55461;SDS011;41327;45.102;20.624;2023-01-06T11:22:00;9.32;;;4.40;;
55461;SDS011;41327;45.102;20.624;2023-01-06T11:24:26;7.63;;;2.90;;
55461;SDS011;41327;45.102;20.624;2023-01-06T11:26:53;8.00;;;3.38;;
55461;SDS011;41327;45.102;20.624;2023-01-06T11:29:30;29.00;;;13.27;;
55461;SDS011;41327;45.102;20.624;2023-01-06T11:32:19;22.10;;;12.90;;
55461;SDS011;41327;45.102;20.624;2023-01-06T11:34:53;9.45;;;4.22;;
55461;SDS011;41327;45.102;20.624;2023-01-06T11:37:32;14.90;;;6.55;;
55461;SDS011;41327;45.102;20.624;2023-01-06T11:40:47;10.38;;;5.63;;
55461;SDS011;41327;45.102;20.624;2023-01-06T11:42:52;9.98;;;4.13;;
55461;SDS011;41327;45.102;20.624;2023-01-06T11:45:37;12.38;;;5.75;;
55461;SDS011;41327;45.102;20.624;2023-01-06T11:48:06;15.52;;;5.80;;
55461;SDS011;41327;45.102;20.624;2023-01-06T11:50:53;12.73;;;5.38;;
55461;SDS011;41327;45.102;20.624;2023-01-06T11:53:20;4.60;;;2.00;;
55461;SDS011;41327;45.102;20.624;2023-01-06T12:03:53;3.97;;;2.42;;
55461;SDS011;41327;45.102;20.624;2023-01-06T12:06:26;4.47;;;2.58;;
55461;SDS011;41327;45.102;20.624;2023-01-06T12:09:16;5.78;;;2.03;;
55461;SDS011;41327;45.102;20.624;2023-01-06T12:14:19;3.88;;;1.92;;
55461;SDS011;41327;45.102;20.624;2023-01-06T12:16:52;7.05;;;3.25;;
55461;SDS011;41327;45.102;20.624;2023-01-06T12:19:36;6.53;;;3.28;;
55461;SDS011;41327;45.102;20.624;2023-01-06T12:22:03;7.00;;;3.33;;
55461;SDS011;41327;45.102;20.624;2023-01-06T12:24:29;4.85;;;2.30;;
55461;SDS011;41327;45.102;20.624;2023-01-06T12:26:57;38.25;;;20.30;;
55461;SDS011;41327;45.102;20.624;2023-01-06T12:29:25;67.90;;;35.70;;
55461;SDS011;41327;45.102;20.624;2023-01-06T12:34:40;74.40;;;34.70;;
55461;SDS011;41327;45.102;20.624;2023-01-06T12:42:28;55.90;;;25.27;;
55461;SDS011;41327;45.102;20.624;2023-01-06T12:45:03;94.30;;;42.85;;
55461;SDS011;41327;45.102;20.624;2023-01-06T12:47:45;42.30;;;18.58;;
55461;SDS011;41327;45.102;20.624;2023-01-06T12:50:19;81.93;;;36.42;;
55461;SDS011;41327;45.102;20.624;2023-01-06T12:55:52;59.22;;;28.15;;
55461;SDS011;41327;45.102;20.624;2023-01-06T12:58:46;51.05;;;26.33;;
55461;SDS011;41327;45.102;20.624;2023-01-06T13:10:04;13.68;;;8.80;;
55461;SDS011;41327;45.102;20.624;2023-01-06T13:12:57;22.05;;;10.27;;
55461;SDS011;41327;45.102;20.624;2023-01-06T13:15:27;21.95;;;9.10;;
55461;SDS011;41327;45.102;20.624;2023-01-06T13:17:59;18.98;;;6.68;;
55461;SDS011;41327;45.102;20.624;2023-01-06T13:34:34;11.43;;;4.97;;
55461;SDS011;41327;45.102;20.624;2023-01-06T13:37:16;16.55;;;5.75;;
55461;SDS011;41327;45.102;20.624;2023-01-06T13:39:48;11.27;;;5.60;;
55461;SDS011;41327;45.102;20.624;2023-01-06T13:45:18;17.50;;;8.95;;
55461;SDS011;41327;45.102;20.624;2023-01-06T13:47:54;22.08;;;8.75;;
55461;SDS011;41327;45.102;20.624;2023-01-06T13:50:20;21.23;;;8.32;;
55461;SDS011;41327;45.102;20.624;2023-01-06T13:52:46;19.67;;;9.95;;
55461;SDS011;41327;45.102;20.624;2023-01-06T13:57:49;16.20;;;8.20;;
55461;SDS011;41327;45.102;20.624;2023-01-06T14:00:16;27.25;;;11.38;;
55461;SDS011;41327;45.102;20.624;2023-01-06T14:10:36;23.38;;;11.30;;
55461;SDS011;41327;45.102;20.624;2023-01-06T14:16:09;17.52;;;8.00;;
55461;SDS011;41327;45.102;20.624;2023-01-06T14:21:06;21.30;;;10.15;;
55461;SDS011;41327;45.102;20.624;2023-01-06T14:23:52;16.73;;;7.88;;
55461;SDS011;41327;45.102;20.624;2023-01-06T14:34:37;62.22;;;26.60;;
55461;SDS011;41327;45.102;20.624;2023-01-06T14:37:10;74.00;;;31.60;;
55461;SDS011;41327;45.102;20.624;2023-01-06T14:39:39;58.88;;;26.60;;
55461;SDS011;41327;45.102;20.624;2023-01-06T14:42:14;57.30;;;26.40;;
55461;SDS011;41327;45.102;20.624;2023-01-06T14:44:43;51.95;;;23.90;;
55461;SDS011;41327;45.102;20.624;2023-01-06T14:50:07;44.05;;;20.42;;
55461;SDS011;41327;45.102;20.624;2023-01-06T14:52:38;43.17;;;21.60;;
55461;SDS011;41327;45.102;20.624;2023-01-06T14:55:10;30.80;;;16.35;;
55461;SDS011;41327;45.102;20.624;2023-01-06T14:57:38;31.58;;;12.93;;
55461;SDS011;41327;45.102;20.624;2023-01-06T15:00:11;40.33;;;15.35;;
55461;SDS011;41327;45.102;20.624;2023-01-06T15:02:55;31.70;;;12.75;;
55461;SDS011;41327;45.102;20.624;2023-01-06T15:05:22;29.33;;;13.73;;
55461;SDS011;41327;45.102;20.624;2023-01-06T15:08:00;23.55;;;12.13;;
55461;SDS011;41327;45.102;20.624;2023-01-06T15:10:33;28.08;;;11.68;;
55461;SDS011;41327;45.102;20.624;2023-01-06T15:13:14;24.73;;;12.80;;
55461;SDS011;41327;45.102;20.624;2023-01-06T15:15:45;70.72;;;38.47;;
55461;SDS011;41327;45.102;20.624;2023-01-06T15:18:36;90.65;;;48.58;;
55461;SDS011;41327;45.102;20.624;2023-01-06T15:21:06;90.55;;;50.47;;
55461;SDS011;41327;45.102;20.624;2023-01-06T15:23:31;79.95;;;40.28;;
55461;SDS011;41327;45.102;20.624;2023-01-06T15:25:57;63.17;;;31.98;;
55461;SDS011;41327;45.102;20.624;2023-01-06T15:28:23;39.95;;;22.77;;
55461;SDS011;41327;45.102;20.624;2023-01-06T15:30:53;40.30;;;16.90;;
55461;SDS011;41327;45.102;20.624;2023-01-06T15:33:27;38.08;;;19.08;;
55461;SDS011;41327;45.102;20.624;2023-01-06T15:35:57;26.30;;;13.98;;
55461;SDS011;41327;45.102;20.624;2023-01-06T15:38:37;17.17;;;8.38;;
55461;SDS011;41327;45.102;20.624;2023-01-06T15:41:03;12.18;;;5.25;;
55461;SDS011;41327;45.102;20.624;2023-01-06T15:43:37;6.95;;;4.28;;
55461;SDS011;41327;45.102;20.624;2023-01-06T15:46:06;29.65;;;14.90;;
55461;SDS011;41327;45.102;20.624;2023-01-06T15:48:33;76.03;;;38.55;;
55461;SDS011;41327;45.102;20.624;2023-01-06T15:51:00;122.20;;;62.45;;
55461;SDS011;41327;45.102;20.624;2023-01-06T15:53:34;86.20;;;46.47;;
55461;SDS011;41327;45.102;20.624;2023-01-06T15:56:00;74.22;;;42.05;;
55461;SDS011;41327;45.102;20.624;2023-01-06T15:58:33;85.40;;;45.33;;
55461;SDS011;41327;45.102;20.624;2023-01-06T16:01:10;51.47;;;30.60;;
55461;SDS011;41327;45.102;20.624;2023-01-06T16:03:43;39.33;;;24.58;;
55461;SDS011;41327;45.102;20.624;2023-01-06T16:06:13;33.13;;;20.42;;
55461;SDS011;41327;45.102;20.624;2023-01-06T16:08:48;40.17;;;24.70;;
55461;SDS011;41327;45.102;20.624;2023-01-06T16:14:05;39.53;;;23.80;;
55461;SDS011;41327;45.102;20.624;2023-01-06T16:17:08;70.45;;;34.38;;
55461;SDS011;41327;45.102;20.624;2023-01-06T16:19:53;117.32;;;57.33;;
55461;SDS011;41327;45.102;20.624;2023-01-06T16:22:25;215.13;;;99.00;;
55461;SDS011;41327;45.102;20.624;2023-01-06T16:24:54;202.18;;;89.78;;
55461;SDS011;41327;45.102;20.624;2023-01-06T16:27:22;162.00;;;72.63;;
55461;SDS011;41327;45.102;20.624;2023-01-06T16:30:05;83.55;;;36.00;;
55461;SDS011;41327;45.102;20.624;2023-01-06T16:32:52;50.83;;;21.42;;
55461;SDS011;41327;45.102;20.624;2023-01-06T16:35:20;74.65;;;26.55;;
55461;SDS011;41327;45.102;20.624;2023-01-06T16:37:49;48.00;;;21.33;;
55461;SDS011;41327;45.102;20.624;2023-01-06T16:40:16;73.28;;;28.10;;
55461;SDS011;41327;45.102;20.624;2023-01-06T16:42:42;79.93;;;31.02;;
55461;SDS011;41327;45.102;20.624;2023-01-06T16:45:20;83.07;;;32.80;;
55461;SDS011;41327;45.102;20.624;2023-01-06T16:47:46;61.67;;;28.98;;
55461;SDS011;41327;45.102;20.624;2023-01-06T16:50:31;76.95;;;34.35;;
55461;SDS011;41327;45.102;20.624;2023-01-06T16:53:01;79.28;;;34.40;;
55461;SDS011;41327;45.102;20.624;2023-01-06T16:55:30;85.75;;;39.90;;